createdAt,value
2022-08-14T07:23:01.441Z,22.40
2022-08-14T07:28:34.780Z,22.70
2022-08-14T07:33:50.208Z,22.90
2022-08-14T07:38:53.714Z,23.20
2022-08-14T07:43:57.711Z,23.50
2022-08-14T07:49:00.687Z,23.80
2022-08-14T07:54:11.063Z,24.10
2022-08-14T07:59:18.561Z,24.30
2022-08-14T08:04:29.461Z,24.40
2022-08-14T08:09:41.529Z,24.60
2022-08-14T08:14:56.470Z,24.60
2022-08-14T08:20:11.717Z,24.70
2022-08-14T08:25:17.955Z,25.00
2022-08-14T08:30:22.447Z,25.10
2022-08-14T08:35:46.152Z,25.40
2022-08-14T08:40:51.905Z,25.70
2022-08-14T08:46:01.051Z,25.90
2022-08-14T08:51:05.144Z,26.10
2022-08-14T08:56:08.122Z,26.40
2022-08-14T09:01:12.991Z,26.60
2022-08-14T09:07:00.571Z,26.90
2022-08-14T09:11:38.666Z,27.00
2022-08-14T09:16:45.180Z,27.20
2022-08-14T09:21:51.027Z,27.40
2022-08-14T09:26:57.992Z,27.50
2022-08-14T09:32:03.674Z,27.40
2022-08-14T09:37:40.593Z,27.60
2022-08-14T09:43:00.064Z,27.80
2022-08-14T09:48:13.868Z,28.10
2022-08-14T09:54:18.579Z,27.80
2022-08-14T09:59:16.009Z,28.10
2022-08-14T10:04:33.361Z,28.50
2022-08-14T10:10:00.106Z,28.50
2022-08-14T10:15:16.931Z,28.70
2022-08-14T10:20:39.913Z,28.70
2022-08-14T10:25:48.838Z,28.80
2022-08-14T10:30:54.942Z,28.90
2022-08-14T10:36:00.904Z,28.90
2022-08-14T10:41:14.857Z,29.30
2022-08-14T10:46:59.088Z,29.30
2022-08-14T10:51:42.924Z,29.50
2022-08-14T10:56:45.915Z,29.50
2022-08-14T11:01:48.956Z,29.70
2022-08-14T11:06:56.096Z,29.70
2022-08-14T11:12:34.071Z,29.90
2022-08-14T11:17:22.431Z,29.90
2022-08-14T11:22:52.932Z,30.00
2022-08-14T11:27:55.001Z,30.00
2022-08-14T11:32:58.813Z,30.30
2022-08-14T11:38:04.547Z,30.30
2022-08-14T11:43:09.278Z,30.50
2022-08-14T11:49:04.048Z,30.40
2022-08-14T11:53:54.157Z,30.60
2022-08-14T11:58:57.592Z,30.60
2022-08-14T12:04:31.749Z,30.80
2022-08-14T12:09:42.973Z,30.90
2022-08-14T12:14:56.985Z,31.00
2022-08-14T12:20:06.549Z,30.80
2022-08-14T12:25:31.280Z,30.90
2022-08-14T12:30:43.133Z,31.20
2022-08-14T12:35:46.665Z,31.30
2022-08-14T12:40:56.094Z,31.50
2022-08-14T12:45:59.184Z,31.60
2022-08-14T12:51:04.400Z,31.80
2022-08-14T12:56:22.338Z,32.10
2022-08-14T13:02:00.468Z,32.20
2022-08-14T13:07:08.607Z,31.90
2022-08-14T13:12:33.159Z,31.50
2022-08-14T13:17:56.985Z,31.10
2022-08-14T13:23:03.617Z,30.80
2022-08-14T13:28:11.171Z,30.70
2022-08-14T13:33:17.607Z,30.50
2022-08-14T13:38:22.312Z,30.40
2022-08-14T13:43:25.949Z,30.40
2022-08-14T13:48:39.611Z,30.30
2022-08-14T13:54:07.146Z,30.40
2022-08-14T13:59:15.962Z,30.90
2022-08-14T14:04:27.157Z,31.20
2022-08-14T14:09:32.450Z,31.00
2022-08-14T14:14:51.538Z,30.70
2022-08-14T14:19:58.411Z,30.90
2022-08-14T14:25:02.651Z,30.40
2022-08-14T14:30:24.444Z,30.10
2022-08-14T14:35:32.954Z,29.90
2022-08-14T14:40:53.583Z,29.40
2022-08-14T14:46:00.093Z,29.30
2022-08-14T14:51:03.672Z,29.10
2022-08-14T14:56:49.458Z,28.90
2022-08-14T15:01:39.423Z,28.90
2022-08-14T15:06:47.481Z,29.00
2022-08-14T15:11:51.117Z,29.00
2022-08-14T15:16:53.945Z,29.00
2022-08-14T15:22:02.449Z,28.90
2022-08-14T15:27:06.928Z,28.90
2022-08-14T15:32:11.384Z,28.70
2022-08-14T15:37:16.616Z,28.70
2022-08-14T15:42:20.675Z,28.80
2022-08-14T15:47:28.925Z,28.80
2022-08-14T15:52:37.252Z,28.70
2022-08-14T15:58:01.555Z,28.80
2022-08-14T16:03:08.728Z,28.70
2022-08-14T16:08:27.004Z,29.00
2022-08-14T16:13:42.553Z,29.00
2022-08-14T16:18:46.833Z,29.00
2022-08-14T16:23:53.686Z,28.80
2022-08-14T16:29:05.064Z,28.60
2022-08-14T16:34:47.050Z,28.60
2022-08-14T16:39:37.166Z,28.30
2022-08-14T16:44:41.306Z,28.40
2022-08-14T16:50:02.729Z,28.30
2022-08-14T16:55:11.005Z,28.40
2022-08-14T17:00:44.288Z,28.50
2022-08-14T17:05:48.244Z,28.90
2022-08-14T17:10:51.083Z,29.00
2022-08-14T17:16:25.157Z,29.10
2022-08-14T17:21:41.782Z,29.30
2022-08-14T17:26:44.824Z,29.30
2022-08-14T17:31:58.804Z,29.20
2022-08-14T17:37:04.760Z,29.20
2022-08-14T17:42:13.301Z,29.00
2022-08-14T17:47:18.341Z,28.90
2022-08-14T17:52:36.394Z,28.40
2022-08-14T17:57:44.670Z,28.20
2022-08-14T18:02:52.136Z,28.20
2022-08-14T18:08:31.277Z,28.00
2022-08-14T18:13:18.853Z,27.80
2022-08-14T18:18:44.761Z,27.50
2022-08-14T18:23:51.007Z,27.20
2022-08-14T18:28:56.280Z,27.00
2022-08-14T18:34:11.762Z,26.70
2022-08-14T18:39:22.794Z,26.50
2022-08-14T18:44:50.743Z,26.30
2022-08-14T18:50:00.773Z,26.00
2022-08-14T18:55:22.484Z,25.70
2022-08-14T19:00:40.129Z,25.40
2022-08-14T19:05:47.710Z,25.20
2022-08-14T19:10:57.685Z,24.90
2022-08-14T19:16:13.511Z,24.70
2022-08-14T19:21:34.945Z,24.40
2022-08-14T19:26:51.893Z,24.20
2022-08-14T19:31:59.631Z,24.00
2022-08-14T19:37:06.733Z,23.80
2022-08-14T19:42:28.426Z,23.60
2022-08-14T19:47:41.257Z,23.40
2022-08-14T19:52:45.905Z,23.20
2022-08-14T19:57:58.709Z,23.00
2022-08-14T20:03:14.252Z,22.80
2022-08-14T20:09:05.284Z,22.70
2022-08-14T20:13:56.043Z,22.50
2022-08-14T20:19:13.894Z,22.40
2022-08-14T20:24:30.722Z,22.20
2022-08-14T20:29:37.900Z,22.00
2022-08-14T20:34:51.588Z,21.90
2022-08-14T20:39:55.827Z,21.70
2022-08-14T20:45:23.682Z,21.60
2022-08-14T20:50:29.655Z,21.50
2022-08-14T20:55:41.454Z,21.40
2022-08-14T21:00:57.623Z,21.20
2022-08-14T21:06:17.263Z,21.10
2022-08-14T21:11:25.073Z,21.00
2022-08-14T21:16:35.857Z,20.90
2022-08-14T21:21:55.517Z,20.80
2022-08-14T21:27:12.405Z,20.70
2022-08-14T21:32:33.754Z,20.60
2022-08-14T21:37:49.122Z,20.50
2022-08-14T21:42:52.505Z,20.40
2022-08-14T21:47:56.523Z,20.50
2022-08-14T21:53:03.593Z,20.40
2022-08-14T21:58:54.311Z,20.30
2022-08-14T22:03:35.098Z,20.20
2022-08-14T22:08:38.839Z,20.20
2022-08-14T22:13:51.702Z,20.10
2022-08-14T22:18:54.899Z,20.00
2022-08-14T22:24:00.064Z,20.00
2022-08-14T22:29:03.124Z,19.90
